sensor_id;sensor_type;location;lat;lon;timestamp;pressure;altitude;pressure_sealevel;temperature;humidity
77706;BME280;66874;45.274;5.880;2023-02-28T00:01:36;99098.00;;;1.84;56.41
77706;BME280;66874;45.274;5.880;2023-02-28T00:04:01;99092.88;;;1.85;56.25
77706;BME280;66874;45.274;5.880;2023-02-28T00:06:27;99098.00;;;1.84;56.30
77706;BME280;66874;45.274;5.880;2023-02-28T00:08:52;99103.22;;;1.87;56.30
77706;BME280;66874;45.274;5.880;2023-02-28T00:11:18;99102.34;;;1.88;56.58
77706;BME280;66874;45.274;5.880;2023-02-28T00:13:45;99100.66;;;1.88;56.66
77706;BME280;66874;45.274;5.880;2023-02-28T00:16:20;99105.81;;;1.88;56.50
77706;BME280;66874;45.274;5.880;2023-02-28T00:18:47;99099.88;;;1.92;56.50
77706;BME280;66874;45.274;5.880;2023-02-28T00:21:13;99105.03;;;1.94;56.58
77706;BME280;66874;45.274;5.880;2023-02-28T00:23:38;99101.59;;;1.95;56.75
77706;BME280;66874;45.274;5.880;2023-02-28T00:26:04;99098.16;;;1.94;56.88
77706;BME280;66874;45.274;5.880;2023-02-28T00:28:29;99099.03;;;1.95;56.81
77706;BME280;66874;45.274;5.880;2023-02-28T03:00:35;99080.41;;;1.60;59.35
77706;BME280;66874;45.274;5.880;2023-02-28T03:03:03;99082.88;;;1.54;59.52
77706;BME280;66874;45.274;5.880;2023-02-28T03:05:41;99084.56;;;1.50;59.66
77706;BME280;66874;45.274;5.880;2023-02-28T03:08:09;99093.16;;;1.51;59.62
77706;BME280;66874;45.274;5.880;2023-02-28T03:10:46;99081.16;;;1.53;59.71
77706;BME280;66874;45.274;5.880;2023-02-28T03:21:28;99081.00;;;1.45;59.89
77706;BME280;66874;45.274;5.880;2023-02-28T03:26:52;99081.88;;;1.45;60.09
77706;BME280;66874;45.274;5.880;2023-02-28T03:29:26;99080.94;;;1.42;60.24
77706;BME280;66874;45.274;5.880;2023-02-28T06:32:55;99179.41;;;0.82;62.60
77706;BME280;66874;45.274;5.880;2023-02-28T06:35:20;99176.69;;;0.76;62.61
77706;BME280;66874;45.274;5.880;2023-02-28T06:37:46;99185.19;;;0.71;62.70
77706;BME280;66874;45.274;5.880;2023-02-28T06:40:12;99192.06;;;0.71;62.81
77706;BME280;66874;45.274;5.880;2023-02-28T06:42:38;99187.69;;;0.68;62.89
77706;BME280;66874;45.274;5.880;2023-02-28T06:45:04;99192.81;;;0.67;62.97
77706;BME280;66874;45.274;5.880;2023-02-28T06:47:34;99205.66;;;0.65;62.95
77706;BME280;66874;45.274;5.880;2023-02-28T06:50:00;99207.31;;;0.63;63.17
77706;BME280;66874;45.274;5.880;2023-02-28T06:52:26;99195.13;;;0.55;63.17
77706;BME280;66874;45.274;5.880;2023-02-28T06:54:52;99208.88;;;0.57;63.34
77706;BME280;66874;45.274;5.880;2023-02-28T06:57:27;99208.88;;;0.57;63.39
77706;BME280;66874;45.274;5.880;2023-02-28T06:59:55;99202.06;;;0.59;63.40
77706;BME280;66874;45.274;5.880;2023-02-28T07:02:21;99211.94;;;0.78;63.89
77706;BME280;66874;45.274;5.880;2023-02-28T07:04:46;99206.44;;;1.01;63.51
77706;BME280;66874;45.274;5.880;2023-02-28T07:07:11;99210.03;;;1.09;63.44
77706;BME280;66874;45.274;5.880;2023-02-28T07:09:37;99206.88;;;1.22;63.19
77706;BME280;66874;45.274;5.880;2023-02-28T07:12:02;99224.09;;;1.25;63.07
77706;BME280;66874;45.274;5.880;2023-02-28T07:14:28;99220.66;;;1.24;62.96
77706;BME280;66874;45.274;5.880;2023-02-28T07:16:53;99222.38;;;1.25;62.97
77706;BME280;66874;45.274;5.880;2023-02-28T07:19:19;99222.47;;;1.30;63.10
77706;BME280;66874;45.274;5.880;2023-02-28T07:21:44;99227.69;;;1.31;63.09
77706;BME280;66874;45.274;5.880;2023-02-28T07:24:10;99228.56;;;1.33;63.02
77706;BME280;66874;45.274;5.880;2023-02-28T07:26:36;99232.06;;;1.35;63.03
77706;BME280;66874;45.274;5.880;2023-02-28T07:29:01;99239.91;;;1.41;63.05
77706;BME280;66874;45.274;5.880;2023-02-28T07:31:27;99243.47;;;1.46;63.01
77706;BME280;66874;45.274;5.880;2023-02-28T07:33:52;99236.75;;;1.55;62.70
77706;BME280;66874;45.274;5.880;2023-02-28T07:36:19;99228.25;;;1.60;62.82
77706;BME280;66874;45.274;5.880;2023-02-28T07:38:46;99230.91;;;1.65;62.61
77706;BME280;66874;45.274;5.880;2023-02-28T07:41:19;99226.72;;;1.70;62.68
77706;BME280;66874;45.274;5.880;2023-02-28T07:43:45;99225.16;;;1.78;62.66
77706;BME280;66874;45.274;5.880;2023-02-28T07:46:14;99222.66;;;1.84;62.66
77706;BME280;66874;45.274;5.880;2023-02-28T07:48:40;99229.69;;;1.91;62.72
77706;BME280;66874;45.274;5.880;2023-02-28T07:51:06;99233.25;;;2.00;62.58
77706;BME280;66874;45.274;5.880;2023-02-28T07:53:32;99229.09;;;2.06;62.46
77706;BME280;66874;45.274;5.880;2023-02-28T07:58:23;99233.59;;;2.18;62.44
77706;BME280;66874;45.274;5.880;2023-02-28T08:00:49;99236.28;;;2.26;62.36
77706;BME280;66874;45.274;5.880;2023-02-28T08:03:16;99234.69;;;2.31;62.17
77706;BME280;66874;45.274;5.880;2023-02-28T08:05:42;99232.13;;;2.34;62.08
77706;BME280;66874;45.274;5.880;2023-02-28T08:08:08;99235.66;;;2.39;62.09
77706;BME280;66874;45.274;5.880;2023-02-28T08:10:33;99236.59;;;2.44;62.03
77706;BME280;66874;45.274;5.880;2023-02-28T08:12:59;99234.22;;;2.56;61.84
77706;BME280;66874;45.274;5.880;2023-02-28T08:15:25;99234.38;;;2.67;61.71
77706;BME280;66874;45.274;5.880;2023-02-28T08:17:51;99232.75;;;2.74;61.66
77706;BME280;66874;45.274;5.880;2023-02-28T08:20:16;99234.56;;;2.79;61.52
77706;BME280;66874;45.274;5.880;2023-02-28T08:22:41;99238.06;;;2.83;61.24
77706;BME280;66874;45.274;5.880;2023-02-28T08:25:07;99238.06;;;2.84;61.32
77706;BME280;66874;45.274;5.880;2023-02-28T08:27:33;99243.22;;;2.83;61.42
77706;BME280;66874;45.274;5.880;2023-02-28T08:29:58;99242.31;;;2.79;61.22
77706;BME280;66874;45.274;5.880;2023-02-28T08:32:24;99233.63;;;2.76;61.22
77706;BME280;66874;45.274;5.880;2023-02-28T08:34:49;99241.38;;;2.76;61.17
77706;BME280;66874;45.274;5.880;2023-02-28T08:37:15;99244.94;;;2.81;61.30
77706;BME280;66874;45.274;5.880;2023-02-28T08:39:40;99245.84;;;2.86;61.09
77706;BME280;66874;45.274;5.880;2023-02-28T08:42:06;99245.91;;;2.90;61.22
77706;BME280;66874;45.274;5.880;2023-02-28T08:44:32;99240.81;;;2.95;61.22
77706;BME280;66874;45.274;5.880;2023-02-28T08:46:57;99248.66;;;3.01;61.04
77706;BME280;66874;45.274;5.880;2023-02-28T08:49:22;99245.25;;;3.05;60.99
77706;BME280;66874;45.274;5.880;2023-02-28T08:51:48;99240.97;;;3.06;60.92
77706;BME280;66874;45.274;5.880;2023-02-28T08:54:13;99240.09;;;3.07;60.96
77706;BME280;66874;45.274;5.880;2023-02-28T08:56:41;99237.56;;;3.08;60.92
77706;BME280;66874;45.274;5.880;2023-02-28T08:59:08;99241.88;;;3.09;60.86
77706;BME280;66874;45.274;5.880;2023-02-28T09:01:34;99241.06;;;3.15;60.69
77706;BME280;66874;45.274;5.880;2023-02-28T09:04:01;99240.31;;;3.21;60.62
77706;BME280;66874;45.274;5.880;2023-02-28T09:06:27;99243.03;;;3.31;60.49
77706;BME280;66874;45.274;5.880;2023-02-28T09:08:56;99238.81;;;3.39;60.34
77706;BME280;66874;45.274;5.880;2023-02-28T09:11:23;99253.47;;;3.42;60.30
77706;BME280;66874;45.274;5.880;2023-02-28T09:13:48;99254.34;;;3.41;60.42
77706;BME280;66874;45.274;5.880;2023-02-28T09:16:15;99252.63;;;3.41;60.33
77706;BME280;66874;45.274;5.880;2023-02-28T09:18:41;99255.19;;;3.40;60.30
77706;BME280;66874;45.274;5.880;2023-02-28T09:21:08;99251.75;;;3.39;60.28
77706;BME280;66874;45.274;5.880;2023-02-28T09:23:34;99250.13;;;3.48;60.25
77706;BME280;66874;45.274;5.880;2023-02-28T09:26:00;99255.31;;;3.49;59.97
77706;BME280;66874;45.274;5.880;2023-02-28T09:28:25;99256.16;;;3.47;60.13
77706;BME280;66874;45.274;5.880;2023-02-28T09:30:53;99253.47;;;3.40;60.04
77706;BME280;66874;45.274;5.880;2023-02-28T09:33:20;99257.72;;;3.35;60.13
77706;BME280;66874;45.274;5.880;2023-02-28T09:35:50;99256.94;;;3.41;60.12
77706;BME280;66874;45.274;5.880;2023-02-28T09:38:16;99256.97;;;3.42;60.12
77706;BME280;66874;45.274;5.880;2023-02-28T09:41:15;99260.47;;;3.46;59.91
77706;BME280;66874;45.274;5.880;2023-02-28T09:43:36;99257.88;;;3.49;59.99
77706;BME280;66874;45.274;5.880;2023-02-28T09:46:12;99269.09;;;3.48;59.96
77706;BME280;66874;45.274;5.880;2023-02-28T09:48:42;99276.03;;;3.51;59.96
77706;BME280;66874;45.274;5.880;2023-02-28T09:53:47;99268.47;;;3.67;59.65
77706;BME280;66874;45.274;5.880;2023-02-28T09:56:20;99265.91;;;3.69;59.54
77706;BME280;66874;45.274;5.880;2023-02-28T10:04:32;99266.00;;;3.77;59.54
77706;BME280;66874;45.274;5.880;2023-02-28T10:06:50;99272.22;;;3.96;59.48
77706;BME280;66874;45.274;5.880;2023-02-28T10:09:25;99271.44;;;4.03;58.90
77706;BME280;66874;45.274;5.880;2023-02-28T10:11:53;99267.06;;;3.97;59.19
77706;BME280;66874;45.274;5.880;2023-02-28T10:14:22;99267.94;;;3.96;59.12
77706;BME280;66874;45.274;5.880;2023-02-28T10:16:58;99273.28;;;4.11;58.84
77706;BME280;66874;45.274;5.880;2023-02-28T10:19:55;99272.28;;;4.02;58.65
77706;BME280;66874;45.274;5.880;2023-02-28T10:25:25;99279.94;;;3.89;58.88
77706;BME280;66874;45.274;5.880;2023-02-28T10:28:15;99276.56;;;3.98;59.07
77706;BME280;66874;45.274;5.880;2023-02-28T10:30:47;99276.53;;;3.92;58.99
77706;BME280;66874;45.274;5.880;2023-02-28T10:33:32;99277.31;;;3.88;59.02
77706;BME280;66874;45.274;5.880;2023-02-28T10:36:00;99279.03;;;3.84;59.17
77706;BME280;66874;45.274;5.880;2023-02-28T10:38:46;99280.72;;;3.84;59.26
77706;BME280;66874;45.274;5.880;2023-02-28T10:41:14;99277.31;;;3.85;59.22
77706;BME280;66874;45.274;5.880;2023-02-28T10:43:42;99280.00;;;3.97;59.11
77706;BME280;66874;45.274;5.880;2023-02-28T10:48:36;99289.50;;;4.00;59.01
77706;BME280;66874;45.274;5.880;2023-02-28T10:51:04;99276.66;;;4.07;58.97
77706;BME280;66874;45.274;5.880;2023-02-28T10:58:31;99289.75;;;4.21;58.81
77706;BME280;66874;45.274;5.880;2023-02-28T11:00:58;99292.38;;;4.24;58.76
77706;BME280;66874;45.274;5.880;2023-02-28T11:03:32;99281.13;;;4.22;58.47
77706;BME280;66874;45.274;5.880;2023-02-28T11:06:03;99283.81;;;4.31;58.57
77706;BME280;66874;45.274;5.880;2023-02-28T11:08:29;99274.41;;;4.46;58.33
77706;BME280;66874;45.274;5.880;2023-02-28T11:10:58;99278.91;;;4.62;58.20
77706;BME280;66874;45.274;5.880;2023-02-28T11:13:33;99266.03;;;4.74;57.99
77706;BME280;66874;45.274;5.880;2023-02-28T11:16:02;99268.72;;;4.85;57.78
77706;BME280;66874;45.274;5.880;2023-02-28T11:21:20;99262.84;;;5.12;57.43
77706;BME280;66874;45.274;5.880;2023-02-28T11:23:47;99260.38;;;5.41;56.87
77706;BME280;66874;45.274;5.880;2023-02-28T11:26:14;99245.81;;;5.78;57.08
77706;BME280;66874;45.274;5.880;2023-02-28T11:28:41;99250.19;;;5.88;56.22
77706;BME280;66874;45.274;5.880;2023-02-28T11:36:30;99231.22;;;6.49;55.56
77706;BME280;66874;45.274;5.880;2023-02-28T11:38:59;99227.75;;;6.79;55.38
77706;BME280;66874;45.274;5.880;2023-02-28T11:47:30;99207.56;;;7.58;53.84
77706;BME280;66874;45.274;5.880;2023-02-28T12:01:01;99178.41;;;9.22;50.90
77706;BME280;66874;45.274;5.880;2023-02-28T12:13:01;99171.84;;;8.89;50.57
77706;BME280;66874;45.274;5.880;2023-02-28T12:18:56;99170.16;;;8.82;50.63
77706;BME280;66874;45.274;5.880;2023-02-28T12:27:07;99169.84;;;8.19;50.91
77706;BME280;66874;45.274;5.880;2023-02-28T12:29:47;99173.44;;;8.02;50.63
77706;BME280;66874;45.274;5.880;2023-02-28T12:32:20;99177.78;;;8.02;51.09
77706;BME280;66874;45.274;5.880;2023-02-28T12:35:11;99171.59;;;8.17;50.91
77706;BME280;66874;45.274;5.880;2023-02-28T12:40:23;99174.34;;;7.95;50.82
77706;BME280;66874;45.274;5.880;2023-02-28T12:43:09;99169.19;;;7.92;50.56
77706;BME280;66874;45.274;5.880;2023-02-28T12:45:47;99165.75;;;7.86;50.40
77706;BME280;66874;45.274;5.880;2023-02-28T12:48:31;99167.47;;;7.83;50.37
77706;BME280;66874;45.274;5.880;2023-02-28T12:51:02;99160.53;;;7.86;50.79
77706;BME280;66874;45.274;5.880;2023-02-28T12:58:50;99152.47;;;8.15;50.24
77706;BME280;66874;45.274;5.880;2023-02-28T13:09:39;99137.81;;;8.04;50.23
77706;BME280;66874;45.274;5.880;2023-02-28T13:12:15;99129.91;;;8.17;50.22
77706;BME280;66874;45.274;5.880;2023-02-28T13:14:42;99118.47;;;8.35;49.96
77706;BME280;66874;45.274;5.880;2023-02-28T13:19:43;99113.06;;;9.28;49.49
77706;BME280;66874;45.274;5.880;2023-02-28T13:24:54;99090.16;;;10.57;47.96
77706;BME280;66874;45.274;5.880;2023-02-28T13:27:32;99093.56;;;11.06;46.84
77706;BME280;66874;45.274;5.880;2023-02-28T13:29:58;99095.94;;;11.57;46.77
77706;BME280;66874;45.274;5.880;2023-02-28T13:32:31;99091.91;;;11.79;46.36
77706;BME280;66874;45.274;5.880;2023-02-28T13:39:56;99094.03;;;11.63;45.49
77706;BME280;66874;45.274;5.880;2023-02-28T13:48:02;99097.16;;;11.81;44.55
77706;BME280;66874;45.274;5.880;2023-02-28T14:06:31;99088.28;;;10.64;44.57
77706;BME280;66874;45.274;5.880;2023-02-28T14:09:00;99088.66;;;10.45;44.81
77706;BME280;66874;45.274;5.880;2023-02-28T14:11:39;99089.78;;;10.31;44.99
77706;BME280;66874;45.274;5.880;2023-02-28T14:14:07;99092.72;;;10.09;45.42
77706;BME280;66874;45.274;5.880;2023-02-28T14:16:39;99081.59;;;9.96;45.53
77706;BME280;66874;45.274;5.880;2023-02-28T14:19:25;99081.44;;;10.07;45.49
77706;BME280;66874;45.274;5.880;2023-02-28T14:21:58;99075.44;;;10.00;45.46
77706;BME280;66874;45.274;5.880;2023-02-28T14:32:44;99076.84;;;10.18;44.89
77706;BME280;66874;45.274;5.880;2023-02-28T14:35:35;99077.97;;;10.05;44.92
77706;BME280;66874;45.274;5.880;2023-02-28T14:38:07;99078.13;;;9.94;44.95
77706;BME280;66874;45.274;5.880;2023-02-28T14:40:39;99077.19;;;9.98;44.96
77706;BME280;66874;45.274;5.880;2023-02-28T14:43:16;99079.59;;;10.11;45.13
77706;BME280;66874;45.274;5.880;2023-02-28T14:45:43;99077.13;;;10.05;44.86
77706;BME280;66874;45.274;5.880;2023-02-28T14:48:15;99077.66;;;9.72;44.94
77706;BME280;66874;45.274;5.880;2023-02-28T14:50:48;99078.00;;;9.49;45.20
77706;BME280;66874;45.274;5.880;2023-02-28T14:53:18;99088.63;;;9.36;45.60
77706;BME280;66874;45.274;5.880;2023-02-28T14:55:46;99088.78;;;9.22;45.52
77706;BME280;66874;45.274;5.880;2023-02-28T14:58:22;99090.81;;;9.01;46.04
77706;BME280;66874;45.274;5.880;2023-02-28T15:00:51;99089.38;;;8.74;46.28
77706;BME280;66874;45.274;5.880;2023-02-28T15:03:34;99086.09;;;8.57;46.74
77706;BME280;66874;45.274;5.880;2023-02-28T15:06:12;99091.31;;;8.57;46.47
77706;BME280;66874;45.274;5.880;2023-02-28T15:08:37;99086.91;;;8.65;46.70
77706;BME280;66874;45.274;5.880;2023-02-28T15:11:08;99093.31;;;8.29;46.22
77706;BME280;66874;45.274;5.880;2023-02-28T15:13:46;99112.16;;;7.48;47.16
77706;BME280;66874;45.274;5.880;2023-02-28T15:18:48;99110.81;;;6.58;48.77
77706;BME280;66874;45.274;5.880;2023-02-28T15:21:21;99118.63;;;6.41;49.03
77706;BME280;66874;45.274;5.880;2023-02-28T15:24:06;99121.25;;;6.27;49.59
77706;BME280;66874;45.274;5.880;2023-02-28T15:26:39;99116.09;;;6.15;49.93
77706;BME280;66874;45.274;5.880;2023-02-28T15:29:07;99116.06;;;6.06;50.08
77706;BME280;66874;45.274;5.880;2023-02-28T15:31:43;99106.53;;;6.02;50.14
77706;BME280;66874;45.274;5.880;2023-02-28T15:34:21;99112.56;;;5.90;50.61
77706;BME280;66874;45.274;5.880;2023-02-28T15:36:47;99108.25;;;5.81;50.86
77706;BME280;66874;45.274;5.880;2023-02-28T15:39:22;99107.38;;;5.70;51.23
77706;BME280;66874;45.274;5.880;2023-02-28T15:41:47;99103.88;;;5.56;50.89
77706;BME280;66874;45.274;5.880;2023-02-28T15:46:55;99109.94;;;5.53;51.36
77706;BME280;66874;45.274;5.880;2023-02-28T15:49:22;99106.47;;;5.51;51.66
77706;BME280;66874;45.274;5.880;2023-02-28T15:51:50;99108.19;;;5.48;52.09
77706;BME280;66874;45.274;5.880;2023-02-28T15:54:23;99107.31;;;5.44;51.70
77706;BME280;66874;45.274;5.880;2023-02-28T15:56:53;99112.50;;;5.41;51.99
77706;BME280;66874;45.274;5.880;2023-02-28T15:59:28;99114.25;;;5.39;52.63
77706;BME280;66874;45.274;5.880;2023-02-28T16:04:35;99115.97;;;5.31;52.41
77706;BME280;66874;45.274;5.880;2023-02-28T16:07:06;99117.66;;;5.24;52.70
77706;BME280;66874;45.274;5.880;2023-02-28T16:09:31;99121.94;;;5.18;52.59
77706;BME280;66874;45.274;5.880;2023-02-28T16:12:02;99119.38;;;5.16;52.57
77706;BME280;66874;45.274;5.880;2023-02-28T16:14:29;99117.63;;;5.12;52.80
77706;BME280;66874;45.274;5.880;2023-02-28T16:17:07;99121.94;;;5.10;52.97
77706;BME280;66874;45.274;5.880;2023-02-28T16:19:34;99127.97;;;5.06;52.80
77706;BME280;66874;45.274;5.880;2023-02-28T16:21:59;99127.97;;;5.04;52.95
77706;BME280;66874;45.274;5.880;2023-02-28T16:24:25;99139.16;;;5.03;52.96
77706;BME280;66874;45.274;5.880;2023-02-28T16:26:52;99142.63;;;5.02;53.19
77706;BME280;66874;45.274;5.880;2023-02-28T16:29:26;99142.63;;;4.99;53.15
77706;BME280;66874;45.274;5.880;2023-02-28T16:31:53;99142.59;;;4.95;53.35
77706;BME280;66874;45.274;5.880;2023-02-28T16:34:19;99132.22;;;4.95;53.29
77706;BME280;66874;45.274;5.880;2023-02-28T16:36:46;99136.53;;;4.91;53.35
77706;BME280;66874;45.274;5.880;2023-02-28T16:39:12;99140.84;;;4.89;53.42
77706;BME280;66874;45.274;5.880;2023-02-28T16:41:37;99140.84;;;4.87;53.83
77706;BME280;66874;45.274;5.880;2023-02-28T16:44:07;99146.88;;;4.83;53.57
77706;BME280;66874;45.274;5.880;2023-02-28T16:46:35;99142.53;;;4.78;53.71
77706;BME280;66874;45.274;5.880;2023-02-28T16:49:01;99148.56;;;4.74;53.85
77706;BME280;66874;45.274;5.880;2023-02-28T16:51:26;99151.13;;;4.69;54.13
77706;BME280;66874;45.274;5.880;2023-02-28T16:53:52;99158.88;;;4.68;53.83
77706;BME280;66874;45.274;5.880;2023-02-28T16:56:22;99167.50;;;4.68;54.08
77706;BME280;66874;45.274;5.880;2023-02-28T16:58:49;99164.91;;;4.63;54.28
77706;BME280;66874;45.274;5.880;2023-02-28T17:01:16;99167.47;;;4.65;54.19
77706;BME280;66874;45.274;5.880;2023-02-28T17:03:42;99173.56;;;4.67;54.16
77706;BME280;66874;45.274;5.880;2023-02-28T17:06:22;99176.16;;;4.65;54.07
77706;BME280;66874;45.274;5.880;2023-02-28T17:08:49;99169.22;;;4.63;54.09
77706;BME280;66874;45.274;5.880;2023-02-28T17:11:16;99177.84;;;4.62;54.11
77706;BME280;66874;45.274;5.880;2023-02-28T17:13:41;99177.84;;;4.62;54.31
77706;BME280;66874;45.274;5.880;2023-02-28T17:16:28;99185.56;;;4.56;54.72
77706;BME280;66874;45.274;5.880;2023-02-28T17:18:57;99186.41;;;4.53;54.75
77706;BME280;66874;45.274;5.880;2023-02-28T17:21:23;99183.81;;;4.53;54.60
77706;BME280;66874;45.274;5.880;2023-02-28T17:23:48;99190.72;;;4.50;54.54
77706;BME280;66874;45.274;5.880;2023-02-28T17:26:16;99189.00;;;4.50;54.67
77706;BME280;66874;45.274;5.880;2023-02-28T17:28:45;99189.84;;;4.49;54.70
77706;BME280;66874;45.274;5.880;2023-02-28T17:31:10;99191.56;;;4.49;54.95
77706;BME280;66874;45.274;5.880;2023-02-28T17:33:36;99184.63;;;4.45;54.80
77706;BME280;66874;45.274;5.880;2023-02-28T17:36:01;99187.22;;;4.43;54.74
77706;BME280;66874;45.274;5.880;2023-02-28T17:38:27;99194.13;;;4.43;55.06
77706;BME280;66874;45.274;5.880;2023-02-28T17:40:52;99188.09;;;4.42;54.83
77706;BME280;66874;45.274;5.880;2023-02-28T17:43:23;99193.22;;;4.40;55.13
77706;BME280;66874;45.274;5.880;2023-02-28T17:45:48;99198.38;;;4.37;54.93
77706;BME280;66874;45.274;5.880;2023-02-28T17:48:15;99201.84;;;4.38;55.04
77706;BME280;66874;45.274;5.880;2023-02-28T17:50:40;99199.25;;;4.36;55.19
77706;BME280;66874;45.274;5.880;2023-02-28T17:53:06;99201.84;;;4.35;55.08
77706;BME280;66874;45.274;5.880;2023-02-28T17:55:31;99202.66;;;4.34;55.18
77706;BME280;66874;45.274;5.880;2023-02-28T17:57:58;99209.53;;;4.30;55.24
77706;BME280;66874;45.274;5.880;2023-02-28T18:00:24;99206.09;;;4.27;55.23
77706;BME280;66874;45.274;5.880;2023-02-28T18:02:49;99209.50;;;4.24;55.42
77706;BME280;66874;45.274;5.880;2023-02-28T18:05:15;99200.84;;;4.21;55.45
77706;BME280;66874;45.274;5.880;2023-02-28T18:07:40;99209.47;;;4.20;55.50
77706;BME280;66874;45.274;5.880;2023-02-28T18:10:11;99216.38;;;4.19;55.39
77706;BME280;66874;45.274;5.880;2023-02-28T18:12:38;99213.75;;;4.16;55.61
77706;BME280;66874;45.274;5.880;2023-02-28T18:15:04;99218.03;;;4.14;55.77
77706;BME280;66874;45.274;5.880;2023-02-28T18:17:29;99214.59;;;4.12;55.87
77706;BME280;66874;45.274;5.880;2023-02-28T18:19:54;99224.94;;;4.12;55.74
77706;BME280;66874;45.274;5.880;2023-02-28T18:22:20;99222.28;;;4.07;55.99
77706;BME280;66874;45.274;5.880;2023-02-28T18:24:46;99214.53;;;4.06;56.03
77706;BME280;66874;45.274;5.880;2023-02-28T18:27:12;99220.59;;;4.08;56.11
77706;BME280;66874;45.274;5.880;2023-02-28T18:29:37;99215.38;;;4.06;56.06
77706;BME280;66874;45.274;5.880;2023-02-28T18:32:02;99218.00;;;4.09;55.98
77706;BME280;66874;45.274;5.880;2023-02-28T18:34:30;99213.69;;;4.08;55.97
77706;BME280;66874;45.274;5.880;2023-02-28T18:36:55;99219.69;;;4.07;56.29
77706;BME280;66874;45.274;5.880;2023-02-28T18:39:22;99220.56;;;4.06;55.99
77706;BME280;66874;45.274;5.880;2023-02-28T18:41:47;99224.00;;;4.04;56.35
77706;BME280;66874;45.274;5.880;2023-02-28T18:44:13;99220.53;;;4.03;56.21
77706;BME280;66874;45.274;5.880;2023-02-28T18:46:38;99222.28;;;4.04;56.23
77706;BME280;66874;45.274;5.880;2023-02-28T18:49:04;99224.00;;;4.05;56.36
77706;BME280;66874;45.274;5.880;2023-02-28T18:51:30;99220.53;;;4.03;56.21
77706;BME280;66874;45.274;5.880;2023-02-28T18:53:55;99217.94;;;4.02;56.26
77706;BME280;66874;45.274;5.880;2023-02-28T18:56:24;99224.84;;;4.01;56.79
77706;BME280;66874;45.274;5.880;2023-02-28T18:58:51;99223.03;;;3.96;56.88
77706;BME280;66874;45.274;5.880;2023-02-28T19:01:24;99223.91;;;3.93;56.63
77706;BME280;66874;45.274;5.880;2023-02-28T19:03:54;99227.31;;;3.90;56.74
77706;BME280;66874;45.274;5.880;2023-02-28T19:06:19;99220.41;;;3.91;56.66
77706;BME280;66874;45.274;5.880;2023-02-28T19:08:45;99222.16;;;3.92;56.56
77706;BME280;66874;45.274;5.880;2023-02-28T19:11:13;99222.16;;;3.92;56.60
77706;BME280;66874;45.274;5.880;2023-02-28T19:13:40;99227.31;;;3.90;56.58
77706;BME280;66874;45.274;5.880;2023-02-28T19:16:06;99225.56;;;3.88;56.71
77706;BME280;66874;45.274;5.880;2023-02-28T19:18:33;99216.06;;;3.85;56.65
77706;BME280;66874;45.274;5.880;2023-02-28T19:20:59;99214.34;;;3.86;56.87
77706;BME280;66874;45.274;5.880;2023-02-28T19:23:25;99216.09;;;3.88;56.76
77706;BME280;66874;45.274;5.880;2023-02-28T19:25:51;99216.91;;;3.87;56.62
77706;BME280;66874;45.274;5.880;2023-02-28T19:28:16;99217.81;;;3.89;56.69
77706;BME280;66874;45.274;5.880;2023-02-28T19:30:49;99222.09;;;3.87;56.70
77706;BME280;66874;45.274;5.880;2023-02-28T19:33:17;99215.19;;;3.86;56.83
77706;BME280;66874;45.274;5.880;2023-02-28T19:35:43;99218.66;;;3.85;56.85
77706;BME280;66874;45.274;5.880;2023-02-28T19:38:08;99222.97;;;3.86;56.69
77706;BME280;66874;45.274;5.880;2023-02-28T19:40:34;99222.09;;;3.87;56.77
77706;BME280;66874;45.274;5.880;2023-02-28T19:42:59;99221.22;;;3.87;56.75
77706;BME280;66874;45.274;5.880;2023-02-28T19:45:25;99210.03;;;3.86;56.64
77706;BME280;66874;45.274;5.880;2023-02-28T19:47:50;99217.78;;;3.86;56.95
77706;BME280;66874;45.274;5.880;2023-02-28T19:50:16;99212.56;;;3.83;56.97
77706;BME280;66874;45.274;5.880;2023-02-28T19:52:41;99210.81;;;3.79;57.05
77706;BME280;66874;45.274;5.880;2023-02-28T19:55:08;99207.34;;;3.80;56.88
77706;BME280;66874;45.274;5.880;2023-02-28T19:57:34;99203.06;;;3.82;56.80
77706;BME280;66874;45.274;5.880;2023-02-28T19:59:59;99210.84;;;3.84;56.97
77706;BME280;66874;45.274;5.880;2023-02-28T20:02:28;99215.19;;;3.85;56.83
77706;BME280;66874;45.274;5.880;2023-02-28T20:04:59;99210.84;;;3.82;56.93
77706;BME280;66874;45.274;5.880;2023-02-28T20:07:25;99212.53;;;3.80;57.01
77706;BME280;66874;45.274;5.880;2023-02-28T20:09:51;99209.94;;;3.79;56.98
77706;BME280;66874;45.274;5.880;2023-02-28T20:12:17;99215.13;;;3.79;57.13
77706;BME280;66874;45.274;5.880;2023-02-28T20:14:47;99215.06;;;3.76;57.14
77706;BME280;66874;45.274;5.880;2023-02-28T20:17:12;99218.50;;;3.72;57.17
77706;BME280;66874;45.274;5.880;2023-02-28T20:19:38;99217.63;;;3.71;57.06
77706;BME280;66874;45.274;5.880;2023-02-28T20:22:03;99216.75;;;3.72;57.33
77706;BME280;66874;45.274;5.880;2023-02-28T20:24:29;99215.94;;;3.75;57.08
77706;BME280;66874;45.274;5.880;2023-02-28T20:26:55;99218.53;;;3.73;57.11
77706;BME280;66874;45.274;5.880;2023-02-28T20:29:22;99209.81;;;3.68;56.98
77706;BME280;66874;45.274;5.880;2023-02-28T20:31:47;99208.09;;;3.67;57.38
77706;BME280;66874;45.274;5.880;2023-02-28T20:34:13;99220.16;;;3.66;57.14
77706;BME280;66874;45.274;5.880;2023-02-28T20:36:38;99213.28;;;3.67;57.31
77706;BME280;66874;45.274;5.880;2023-02-28T20:39:04;99227.97;;;3.71;57.15
77706;BME280;66874;45.274;5.880;2023-02-28T20:41:29;99222.81;;;3.73;57.05
77706;BME280;66874;45.274;5.880;2023-02-28T20:43:56;99225.44;;;3.76;56.97
77706;BME280;66874;45.274;5.880;2023-02-28T20:46:28;99221.97;;;3.75;57.04
77706;BME280;66874;45.274;5.880;2023-02-28T20:48:54;99222.88;;;3.77;57.16
77706;BME280;66874;45.274;5.880;2023-02-28T20:51:20;99218.56;;;3.78;57.11
77706;BME280;66874;45.274;5.880;2023-02-28T20:53:45;99221.16;;;3.79;57.24
77706;BME280;66874;45.274;5.880;2023-02-28T20:56:16;99228.91;;;3.79;57.30
77706;BME280;66874;45.274;5.880;2023-02-28T20:58:44;99224.59;;;3.80;57.25
77706;BME280;66874;45.274;5.880;2023-02-28T21:01:17;99223.78;;;3.81;57.46
77706;BME280;66874;45.274;5.880;2023-02-28T21:03:48;99219.47;;;3.81;57.40
77706;BME280;66874;45.274;5.880;2023-02-28T21:06:15;99227.22;;;3.81;57.61
77706;BME280;66874;45.274;5.880;2023-02-28T21:08:41;99227.22;;;3.83;57.35